sensor_id;sensor_type;location;lat;lon;timestamp;P1;durP1;ratioP1;P2;durP2;ratioP2
33672;SDS011;20011;51.510;9.942;2023-08-08T00:02:02;2.97;;;1.67;;
33672;SDS011;20011;51.510;9.942;2023-08-08T00:04:31;3.28;;;1.98;;
33672;SDS011;20011;51.510;9.942;2023-08-08T00:06:59;3.28;;;2.13;;
33672;SDS011;20011;51.510;9.942;2023-08-08T00:09:27;5.55;;;2.17;;
33672;SDS011;20011;51.510;9.942;2023-08-08T00:11:55;3.97;;;2.05;;
33672;SDS011;20011;51.510;9.942;2023-08-08T00:14:26;6.30;;;2.40;;
33672;SDS011;20011;51.510;9.942;2023-08-08T00:16:54;3.10;;;1.50;;
33672;SDS011;20011;51.510;9.942;2023-08-08T00:19:22;3.05;;;1.98;;
33672;SDS011;20011;51.510;9.942;2023-08-08T00:21:50;5.28;;;2.40;;
33672;SDS011;20011;51.510;9.942;2023-08-08T00:24:18;3.42;;;2.00;;
33672;SDS011;20011;51.510;9.942;2023-08-08T00:26:48;5.38;;;2.10;;
33672;SDS011;20011;51.510;9.942;2023-08-08T00:29:16;3.92;;;1.80;;
33672;SDS011;20011;51.510;9.942;2023-08-08T00:31:44;7.22;;;1.80;;
33672;SDS011;20011;51.510;9.942;2023-08-08T00:34:12;7.43;;;2.20;;
33672;SDS011;20011;51.510;9.942;2023-08-08T00:36:40;2.58;;;1.75;;
33672;SDS011;20011;51.510;9.942;2023-08-08T00:39:07;4.22;;;1.73;;
33672;SDS011;20011;51.510;9.942;2023-08-08T00:41:35;6.57;;;2.22;;
33672;SDS011;20011;51.510;9.942;2023-08-08T00:44:03;2.30;;;1.70;;
33672;SDS011;20011;51.510;9.942;2023-08-08T00:46:32;2.92;;;2.08;;
33672;SDS011;20011;51.510;9.942;2023-08-08T00:49:01;4.55;;;1.90;;
33672;SDS011;20011;51.510;9.942;2023-08-08T00:51:30;5.90;;;2.08;;
33672;SDS011;20011;51.510;9.942;2023-08-08T00:53:58;6.60;;;1.80;;
33672;SDS011;20011;51.510;9.942;2023-08-08T00:56:26;4.45;;;1.85;;
33672;SDS011;20011;51.510;9.942;2023-08-08T00:58:55;3.22;;;1.92;;
33672;SDS011;20011;51.510;9.942;2023-08-08T01:01:23;5.45;;;2.10;;
33672;SDS011;20011;51.510;9.942;2023-08-08T01:03:52;4.03;;;2.05;;
33672;SDS011;20011;51.510;9.942;2023-08-08T01:06:26;2.30;;;1.83;;
33672;SDS011;20011;51.510;9.942;2023-08-08T01:09:09;5.88;;;1.95;;
33672;SDS011;20011;51.510;9.942;2023-08-08T01:11:53;3.35;;;1.80;;
33672;SDS011;20011;51.510;9.942;2023-08-08T01:14:22;4.57;;;2.10;;
33672;SDS011;20011;51.510;9.942;2023-08-08T01:16:54;7.90;;;2.03;;
33672;SDS011;20011;51.510;9.942;2023-08-08T01:19:27;3.17;;;1.98;;
33672;SDS011;20011;51.510;9.942;2023-08-08T01:21:57;5.03;;;1.77;;
33672;SDS011;20011;51.510;9.942;2023-08-08T01:24:30;1.92;;;1.63;;
33672;SDS011;20011;51.510;9.942;2023-08-08T01:27:00;4.65;;;2.22;;
33672;SDS011;20011;51.510;9.942;2023-08-08T01:29:28;4.05;;;2.10;;
33672;SDS011;20011;51.510;9.942;2023-08-08T01:31:56;8.60;;;2.10;;
33672;SDS011;20011;51.510;9.942;2023-08-08T01:34:25;5.70;;;2.00;;
33672;SDS011;20011;51.510;9.942;2023-08-08T01:37:36;4.40;;;2.00;;
33672;SDS011;20011;51.510;9.942;2023-08-08T01:39:46;2.00;;;1.52;;
33672;SDS011;20011;51.510;9.942;2023-08-08T01:42:15;4.30;;;1.92;;
33672;SDS011;20011;51.510;9.942;2023-08-08T01:44:45;2.90;;;2.15;;
33672;SDS011;20011;51.510;9.942;2023-08-08T01:47:14;3.55;;;1.83;;
33672;SDS011;20011;51.510;9.942;2023-08-08T01:49:42;5.90;;;1.85;;
33672;SDS011;20011;51.510;9.942;2023-08-08T01:52:13;5.07;;;2.00;;
33672;SDS011;20011;51.510;9.942;2023-08-08T01:54:41;1.85;;;1.67;;
33672;SDS011;20011;51.510;9.942;2023-08-08T01:57:10;5.38;;;2.03;;
33672;SDS011;20011;51.510;9.942;2023-08-08T01:59:39;6.28;;;2.13;;
33672;SDS011;20011;51.510;9.942;2023-08-08T02:02:07;3.78;;;1.92;;
33672;SDS011;20011;51.510;9.942;2023-08-08T02:04:35;2.78;;;1.63;;
33672;SDS011;20011;51.510;9.942;2023-08-08T02:07:04;3.08;;;1.98;;
33672;SDS011;20011;51.510;9.942;2023-08-08T02:09:33;2.55;;;1.40;;
33672;SDS011;20011;51.510;9.942;2023-08-08T02:12:01;2.35;;;1.50;;
33672;SDS011;20011;51.510;9.942;2023-08-08T02:17:00;3.30;;;1.55;;
33672;SDS011;20011;51.510;9.942;2023-08-08T02:19:28;4.80;;;1.88;;
33672;SDS011;20011;51.510;9.942;2023-08-08T02:21:57;8.82;;;1.83;;
33672;SDS011;20011;51.510;9.942;2023-08-08T02:24:25;4.78;;;2.08;;
33672;SDS011;20011;51.510;9.942;2023-08-08T02:26:54;2.67;;;1.52;;
33672;SDS011;20011;51.510;9.942;2023-08-08T02:29:23;6.32;;;1.45;;
33672;SDS011;20011;51.510;9.942;2023-08-08T02:31:50;3.67;;;1.50;;
33672;SDS011;20011;51.510;9.942;2023-08-08T02:34:19;3.63;;;1.95;;
33672;SDS011;20011;51.510;9.942;2023-08-08T02:36:47;4.78;;;1.80;;
33672;SDS011;20011;51.510;9.942;2023-08-08T02:39:15;6.97;;;1.80;;
33672;SDS011;20011;51.510;9.942;2023-08-08T02:41:43;4.13;;;1.63;;
33672;SDS011;20011;51.510;9.942;2023-08-08T02:44:12;2.90;;;1.73;;
33672;SDS011;20011;51.510;9.942;2023-08-08T02:46:40;3.65;;;1.85;;
33672;SDS011;20011;51.510;9.942;2023-08-08T02:49:09;4.18;;;1.80;;
33672;SDS011;20011;51.510;9.942;2023-08-08T02:51:37;6.18;;;2.53;;
33672;SDS011;20011;51.510;9.942;2023-08-08T02:54:05;4.68;;;1.88;;
33672;SDS011;20011;51.510;9.942;2023-08-08T02:56:35;7.47;;;2.30;;
33672;SDS011;20011;51.510;9.942;2023-08-08T02:59:04;3.38;;;1.73;;
33672;SDS011;20011;51.510;9.942;2023-08-08T03:01:33;4.18;;;1.90;;
33672;SDS011;20011;51.510;9.942;2023-08-08T03:04:12;3.40;;;1.90;;
33672;SDS011;20011;51.510;9.942;2023-08-08T03:06:40;4.97;;;2.10;;
33672;SDS011;20011;51.510;9.942;2023-08-08T03:09:09;2.60;;;1.58;;
33672;SDS011;20011;51.510;9.942;2023-08-08T03:11:38;6.10;;;1.67;;
33672;SDS011;20011;51.510;9.942;2023-08-08T03:14:13;4.00;;;1.95;;
33672;SDS011;20011;51.510;9.942;2023-08-08T03:16:42;3.38;;;1.85;;
33672;SDS011;20011;51.510;9.942;2023-08-08T03:19:11;7.40;;;2.63;;
33672;SDS011;20011;51.510;9.942;2023-08-08T03:21:40;4.07;;;2.10;;
33672;SDS011;20011;51.510;9.942;2023-08-08T03:24:09;3.92;;;2.00;;
33672;SDS011;20011;51.510;9.942;2023-08-08T03:26:37;7.20;;;1.88;;
33672;SDS011;20011;51.510;9.942;2023-08-08T03:29:05;4.68;;;1.90;;
33672;SDS011;20011;51.510;9.942;2023-08-08T03:31:42;2.85;;;1.52;;
33672;SDS011;20011;51.510;9.942;2023-08-08T03:34:11;1.70;;;1.52;;
33672;SDS011;20011;51.510;9.942;2023-08-08T03:36:40;1.45;;;1.35;;
33672;SDS011;20011;51.510;9.942;2023-08-08T03:39:09;3.67;;;1.48;;
33672;SDS011;20011;51.510;9.942;2023-08-08T03:41:38;3.25;;;1.98;;
33672;SDS011;20011;51.510;9.942;2023-08-08T03:44:07;4.10;;;2.08;;
33672;SDS011;20011;51.510;9.942;2023-08-08T03:46:35;2.42;;;1.77;;
33672;SDS011;20011;51.510;9.942;2023-08-08T03:49:05;3.38;;;1.77;;
33672;SDS011;20011;51.510;9.942;2023-08-08T03:51:34;3.10;;;1.47;;
33672;SDS011;20011;51.510;9.942;2023-08-08T03:54:03;3.15;;;1.50;;
33672;SDS011;20011;51.510;9.942;2023-08-08T03:56:32;2.25;;;1.70;;
33672;SDS011;20011;51.510;9.942;2023-08-08T03:59:01;3.83;;;1.50;;
33672;SDS011;20011;51.510;9.942;2023-08-08T04:01:29;4.28;;;1.58;;
33672;SDS011;20011;51.510;9.942;2023-08-08T04:03:58;2.38;;;1.50;;
33672;SDS011;20011;51.510;9.942;2023-08-08T04:06:26;1.80;;;1.33;;
33672;SDS011;20011;51.510;9.942;2023-08-08T04:08:55;1.90;;;1.40;;
33672;SDS011;20011;51.510;9.942;2023-08-08T04:11:25;2.20;;;1.45;;
33672;SDS011;20011;51.510;9.942;2023-08-08T04:13:53;6.25;;;1.67;;
33672;SDS011;20011;51.510;9.942;2023-08-08T04:16:22;1.90;;;1.40;;
33672;SDS011;20011;51.510;9.942;2023-08-08T04:18:52;1.55;;;1.08;;
33672;SDS011;20011;51.510;9.942;2023-08-08T04:21:21;3.75;;;1.17;;
33672;SDS011;20011;51.510;9.942;2023-08-08T04:23:49;2.00;;;1.13;;
33672;SDS011;20011;51.510;9.942;2023-08-08T04:26:17;2.40;;;1.50;;
33672;SDS011;20011;51.510;9.942;2023-08-08T04:28:45;3.88;;;2.30;;
33672;SDS011;20011;51.510;9.942;2023-08-08T04:31:14;3.00;;;1.50;;
33672;SDS011;20011;51.510;9.942;2023-08-08T04:33:42;3.30;;;1.65;;
33672;SDS011;20011;51.510;9.942;2023-08-08T04:36:11;2.78;;;1.42;;
33672;SDS011;20011;51.510;9.942;2023-08-08T04:38:39;1.60;;;1.30;;
33672;SDS011;20011;51.510;9.942;2023-08-08T04:41:07;1.80;;;1.30;;
33672;SDS011;20011;51.510;9.942;2023-08-08T04:43:35;2.97;;;1.58;;
33672;SDS011;20011;51.510;9.942;2023-08-08T04:46:03;2.97;;;1.15;;
33672;SDS011;20011;51.510;9.942;2023-08-08T04:48:33;3.85;;;1.65;;
33672;SDS011;20011;51.510;9.942;2023-08-08T04:53:32;2.05;;;1.20;;
33672;SDS011;20011;51.510;9.942;2023-08-08T04:56:00;2.22;;;1.65;;
33672;SDS011;20011;51.510;9.942;2023-08-08T04:58:29;8.05;;;1.40;;
33672;SDS011;20011;51.510;9.942;2023-08-08T05:00:56;1.95;;;1.65;;
33672;SDS011;20011;51.510;9.942;2023-08-08T05:03:23;3.53;;;1.40;;
33672;SDS011;20011;51.510;9.942;2023-08-08T05:05:51;2.35;;;1.20;;
33672;SDS011;20011;51.510;9.942;2023-08-08T05:08:18;3.40;;;1.52;;
33672;SDS011;20011;51.510;9.942;2023-08-08T05:10:45;4.25;;;1.40;;
33672;SDS011;20011;51.510;9.942;2023-08-08T05:13:12;1.27;;;1.17;;
33672;SDS011;20011;51.510;9.942;2023-08-08T05:15:40;3.63;;;1.50;;
33672;SDS011;20011;51.510;9.942;2023-08-08T05:18:06;2.20;;;1.30;;
33672;SDS011;20011;51.510;9.942;2023-08-08T05:20:34;2.05;;;1.35;;
33672;SDS011;20011;51.510;9.942;2023-08-08T05:23:01;2.35;;;1.30;;
33672;SDS011;20011;51.510;9.942;2023-08-08T05:25:28;1.33;;;1.02;;
33672;SDS011;20011;51.510;9.942;2023-08-08T05:27:56;2.40;;;1.50;;
33672;SDS011;20011;51.510;9.942;2023-08-08T05:30:23;2.72;;;1.27;;
33672;SDS011;20011;51.510;9.942;2023-08-08T05:32:50;1.17;;;0.90;;
33672;SDS011;20011;51.510;9.942;2023-08-08T05:35:17;5.28;;;1.33;;
33672;SDS011;20011;51.510;9.942;2023-08-08T05:37:44;4.05;;;1.15;;
33672;SDS011;20011;51.510;9.942;2023-08-08T05:40:11;2.22;;;1.20;;
33672;SDS011;20011;51.510;9.942;2023-08-08T05:42:38;1.92;;;1.48;;
33672;SDS011;20011;51.510;9.942;2023-08-08T05:45:06;3.80;;;1.63;;
33672;SDS011;20011;51.510;9.942;2023-08-08T05:47:33;3.85;;;1.30;;
33672;SDS011;20011;51.510;9.942;2023-08-08T05:50:00;3.45;;;1.63;;
33672;SDS011;20011;51.510;9.942;2023-08-08T05:52:28;2.47;;;1.50;;
33672;SDS011;20011;51.510;9.942;2023-08-08T05:54:55;1.83;;;1.50;;
33672;SDS011;20011;51.510;9.942;2023-08-08T05:57:22;3.45;;;1.98;;
33672;SDS011;20011;51.510;9.942;2023-08-08T05:59:49;8.48;;;2.05;;
33672;SDS011;20011;51.510;9.942;2023-08-08T06:02:16;3.05;;;1.52;;
33672;SDS011;20011;51.510;9.942;2023-08-08T06:04:44;4.22;;;1.33;;
33672;SDS011;20011;51.510;9.942;2023-08-08T06:07:11;2.15;;;1.42;;
33672;SDS011;20011;51.510;9.942;2023-08-08T06:09:38;3.38;;;1.73;;
33672;SDS011;20011;51.510;9.942;2023-08-08T06:12:06;5.38;;;1.73;;
33672;SDS011;20011;51.510;9.942;2023-08-08T06:14:33;5.43;;;1.92;;
33672;SDS011;20011;51.510;9.942;2023-08-08T06:17:00;3.78;;;1.67;;
33672;SDS011;20011;51.510;9.942;2023-08-08T06:19:27;3.50;;;1.73;;
33672;SDS011;20011;51.510;9.942;2023-08-08T06:21:54;4.10;;;1.80;;
33672;SDS011;20011;51.510;9.942;2023-08-08T06:24:21;4.43;;;1.80;;
33672;SDS011;20011;51.510;9.942;2023-08-08T06:26:49;5.20;;;2.10;;
33672;SDS011;20011;51.510;9.942;2023-08-08T06:29:16;7.53;;;2.33;;
33672;SDS011;20011;51.510;9.942;2023-08-08T06:31:43;3.63;;;2.28;;
33672;SDS011;20011;51.510;9.942;2023-08-08T06:34:10;6.15;;;2.30;;
33672;SDS011;20011;51.510;9.942;2023-08-08T06:36:37;2.83;;;1.92;;
33672;SDS011;20011;51.510;9.942;2023-08-08T06:39:04;9.55;;;2.00;;
33672;SDS011;20011;51.510;9.942;2023-08-08T06:41:32;7.88;;;1.70;;
33672;SDS011;20011;51.510;9.942;2023-08-08T06:43:59;4.38;;;2.03;;
33672;SDS011;20011;51.510;9.942;2023-08-08T06:46:26;3.25;;;1.80;;
33672;SDS011;20011;51.510;9.942;2023-08-08T06:48:53;4.55;;;1.75;;
33672;SDS011;20011;51.510;9.942;2023-08-08T06:53:51;2.92;;;1.92;;
33672;SDS011;20011;51.510;9.942;2023-08-08T06:56:18;3.80;;;1.50;;
33672;SDS011;20011;51.510;9.942;2023-08-08T06:58:46;3.92;;;1.83;;
33672;SDS011;20011;51.510;9.942;2023-08-08T07:01:13;4.15;;;1.75;;
33672;SDS011;20011;51.510;9.942;2023-08-08T07:03:41;3.10;;;1.58;;
33672;SDS011;20011;51.510;9.942;2023-08-08T07:06:08;3.88;;;2.05;;
33672;SDS011;20011;51.510;9.942;2023-08-08T07:08:36;2.83;;;2.20;;
33672;SDS011;20011;51.510;9.942;2023-08-08T07:11:05;7.78;;;1.75;;
33672;SDS011;20011;51.510;9.942;2023-08-08T07:13:32;6.03;;;1.95;;
33672;SDS011;20011;51.510;9.942;2023-08-08T07:16:00;4.25;;;2.03;;
33672;SDS011;20011;51.510;9.942;2023-08-08T07:18:27;3.45;;;1.83;;
33672;SDS011;20011;51.510;9.942;2023-08-08T07:20:54;5.25;;;1.90;;
33672;SDS011;20011;51.510;9.942;2023-08-08T07:23:23;1.73;;;1.50;;
33672;SDS011;20011;51.510;9.942;2023-08-08T07:25:50;4.65;;;1.80;;
33672;SDS011;20011;51.510;9.942;2023-08-08T07:28:17;3.15;;;1.80;;
33672;SDS011;20011;51.510;9.942;2023-08-08T07:30:44;2.80;;;2.03;;
33672;SDS011;20011;51.510;9.942;2023-08-08T07:33:11;5.80;;;1.90;;
33672;SDS011;20011;51.510;9.942;2023-08-08T07:35:40;7.45;;;1.98;;
33672;SDS011;20011;51.510;9.942;2023-08-08T07:38:07;6.55;;;1.95;;
33672;SDS011;20011;51.510;9.942;2023-08-08T07:40:34;3.45;;;1.75;;
33672;SDS011;20011;51.510;9.942;2023-08-08T07:43:02;4.65;;;1.70;;
33672;SDS011;20011;51.510;9.942;2023-08-08T07:45:29;2.45;;;1.80;;
33672;SDS011;20011;51.510;9.942;2023-08-08T07:47:56;3.55;;;2.05;;
33672;SDS011;20011;51.510;9.942;2023-08-08T07:50:23;5.60;;;2.42;;
33672;SDS011;20011;51.510;9.942;2023-08-08T07:52:50;7.93;;;2.10;;
33672;SDS011;20011;51.510;9.942;2023-08-08T07:55:17;3.53;;;1.73;;
33672;SDS011;20011;51.510;9.942;2023-08-08T07:57:45;4.68;;;1.85;;
33672;SDS011;20011;51.510;9.942;2023-08-08T08:00:12;4.35;;;1.77;;
33672;SDS011;20011;51.510;9.942;2023-08-08T08:02:40;9.27;;;1.80;;
33672;SDS011;20011;51.510;9.942;2023-08-08T08:05:09;7.60;;;2.03;;
33672;SDS011;20011;51.510;9.942;2023-08-08T08:07:36;3.88;;;2.05;;
33672;SDS011;20011;51.510;9.942;2023-08-08T08:10:05;3.40;;;1.73;;
33672;SDS011;20011;51.510;9.942;2023-08-08T08:12:35;5.25;;;1.92;;
33672;SDS011;20011;51.510;9.942;2023-08-08T08:15:03;2.88;;;1.60;;
33672;SDS011;20011;51.510;9.942;2023-08-08T08:17:30;4.63;;;1.58;;
33672;SDS011;20011;51.510;9.942;2023-08-08T08:19:58;2.72;;;1.67;;
33672;SDS011;20011;51.510;9.942;2023-08-08T08:22:25;7.43;;;2.20;;
33672;SDS011;20011;51.510;9.942;2023-08-08T08:24:52;6.95;;;2.42;;
33672;SDS011;20011;51.510;9.942;2023-08-08T08:27:19;5.82;;;2.17;;
33672;SDS011;20011;51.510;9.942;2023-08-08T08:29:46;6.95;;;1.92;;
33672;SDS011;20011;51.510;9.942;2023-08-08T08:32:13;4.22;;;2.30;;
33672;SDS011;20011;51.510;9.942;2023-08-08T08:34:40;5.28;;;2.35;;
33672;SDS011;20011;51.510;9.942;2023-08-08T08:37:07;3.35;;;2.17;;
33672;SDS011;20011;51.510;9.942;2023-08-08T08:39:34;9.40;;;2.50;;
33672;SDS011;20011;51.510;9.942;2023-08-08T08:42:01;4.53;;;2.50;;
33672;SDS011;20011;51.510;9.942;2023-08-08T08:47:02;5.55;;;2.78;;
33672;SDS011;20011;51.510;9.942;2023-08-08T08:49:36;3.20;;;2.22;;
33672;SDS011;20011;51.510;9.942;2023-08-08T08:52:05;8.93;;;2.97;;
33672;SDS011;20011;51.510;9.942;2023-08-08T08:54:32;6.22;;;3.15;;
33672;SDS011;20011;51.510;9.942;2023-08-08T08:56:59;9.65;;;2.75;;
33672;SDS011;20011;51.510;9.942;2023-08-08T08:59:26;6.53;;;2.78;;
33672;SDS011;20011;51.510;9.942;2023-08-08T09:01:53;4.85;;;2.92;;
33672;SDS011;20011;51.510;9.942;2023-08-08T09:04:21;7.03;;;3.00;;
33672;SDS011;20011;51.510;9.942;2023-08-08T09:06:49;7.82;;;3.15;;
33672;SDS011;20011;51.510;9.942;2023-08-08T09:09:17;6.00;;;3.03;;
33672;SDS011;20011;51.510;9.942;2023-08-08T09:11:48;6.90;;;3.70;;
33672;SDS011;20011;51.510;9.942;2023-08-08T09:14:17;5.70;;;3.47;;
33672;SDS011;20011;51.510;9.942;2023-08-08T09:16:49;6.68;;;3.30;;
33672;SDS011;20011;51.510;9.942;2023-08-08T09:19:20;8.32;;;4.20;;
33672;SDS011;20011;51.510;9.942;2023-08-08T09:21:47;9.77;;;3.25;;
33672;SDS011;20011;51.510;9.942;2023-08-08T09:24:15;6.60;;;3.88;;
33672;SDS011;20011;51.510;9.942;2023-08-08T09:26:43;5.75;;;3.60;;
33672;SDS011;20011;51.510;9.942;2023-08-08T09:29:12;8.63;;;3.72;;
33672;SDS011;20011;51.510;9.942;2023-08-08T09:34:08;5.30;;;3.75;;
33672;SDS011;20011;51.510;9.942;2023-08-08T09:36:35;4.55;;;3.53;;
33672;SDS011;20011;51.510;9.942;2023-08-08T09:39:03;5.18;;;3.50;;
33672;SDS011;20011;51.510;9.942;2023-08-08T09:41:34;6.93;;;3.60;;
33672;SDS011;20011;51.510;9.942;2023-08-08T09:44:01;6.32;;;3.17;;
33672;SDS011;20011;51.510;9.942;2023-08-08T09:46:29;7.55;;;3.83;;
33672;SDS011;20011;51.510;9.942;2023-08-08T09:48:57;6.30;;;3.65;;
33672;SDS011;20011;51.510;9.942;2023-08-08T09:51:25;5.78;;;3.60;;
33672;SDS011;20011;51.510;9.942;2023-08-08T09:53:56;5.60;;;3.40;;
33672;SDS011;20011;51.510;9.942;2023-08-08T09:56:24;5.88;;;3.33;;
33672;SDS011;20011;51.510;9.942;2023-08-08T09:58:52;8.95;;;3.90;;
33672;SDS011;20011;51.510;9.942;2023-08-08T10:01:20;9.13;;;4.22;;
33672;SDS011;20011;51.510;9.942;2023-08-08T10:03:48;5.60;;;3.38;;
33672;SDS011;20011;51.510;9.942;2023-08-08T10:06:18;7.75;;;3.53;;
33672;SDS011;20011;51.510;9.942;2023-08-08T10:08:45;4.93;;;4.00;;
33672;SDS011;20011;51.510;9.942;2023-08-08T10:11:14;6.22;;;3.30;;
33672;SDS011;20011;51.510;9.942;2023-08-08T10:13:48;9.18;;;3.90;;
33672;SDS011;20011;51.510;9.942;2023-08-08T10:16:17;5.35;;;2.70;;
33672;SDS011;20011;51.510;9.942;2023-08-08T10:18:45;15.27;;;3.20;;
33672;SDS011;20011;51.510;9.942;2023-08-08T10:21:23;9.60;;;4.80;;
33672;SDS011;20011;51.510;9.942;2023-08-08T10:24:02;8.32;;;3.60;;
33672;SDS011;20011;51.510;9.942;2023-08-08T10:26:31;5.15;;;3.42;;
33672;SDS011;20011;51.510;9.942;2023-08-08T10:28:58;6.85;;;3.20;;
33672;SDS011;20011;51.510;9.942;2023-08-08T10:31:32;9.07;;;3.25;;
33672;SDS011;20011;51.510;9.942;2023-08-08T10:34:05;9.40;;;3.88;;
33672;SDS011;20011;51.510;9.942;2023-08-08T10:36:43;9.55;;;4.00;;
33672;SDS011;20011;51.510;9.942;2023-08-08T10:39:15;8.07;;;3.75;;
33672;SDS011;20011;51.510;9.942;2023-08-08T10:41:50;22.23;;;4.53;;
33672;SDS011;20011;51.510;9.942;2023-08-08T10:44:21;5.90;;;3.88;;
33672;SDS011;20011;51.510;9.942;2023-08-08T10:46:50;9.85;;;3.53;;
33672;SDS011;20011;51.510;9.942;2023-08-08T10:49:19;9.95;;;3.70;;
33672;SDS011;20011;51.510;9.942;2023-08-08T10:51:48;4.78;;;3.15;;
33672;SDS011;20011;51.510;9.942;2023-08-08T10:54:21;11.00;;;3.58;;
33672;SDS011;20011;51.510;9.942;2023-08-08T10:56:58;9.20;;;3.50;;
33672;SDS011;20011;51.510;9.942;2023-08-08T11:01:55;4.90;;;2.85;;
33672;SDS011;20011;51.510;9.942;2023-08-08T11:04:24;5.00;;;3.00;;
33672;SDS011;20011;51.510;9.942;2023-08-08T11:06:53;11.60;;;3.55;;
33672;SDS011;20011;51.510;9.942;2023-08-08T11:09:22;5.78;;;3.20;;
33672;SDS011;20011;51.510;9.942;2023-08-08T11:11:49;5.50;;;3.60;;
33672;SDS011;20011;51.510;9.942;2023-08-08T11:14:17;4.78;;;3.28;;
33672;SDS011;20011;51.510;9.942;2023-08-08T11:16:46;7.18;;;3.00;;
33672;SDS011;20011;51.510;9.942;2023-08-08T11:19:15;9.57;;;3.08;;
33672;SDS011;20011;51.510;9.942;2023-08-08T11:21:49;4.30;;;2.88;;
33672;SDS011;20011;51.510;9.942;2023-08-08T11:24:20;5.32;;;2.80;;
33672;SDS011;20011;51.510;9.942;2023-08-08T11:26:47;5.15;;;3.08;;
33672;SDS011;20011;51.510;9.942;2023-08-08T11:29:16;4.57;;;2.97;;
33672;SDS011;20011;51.510;9.942;2023-08-08T11:31:44;4.65;;;3.13;;
33672;SDS011;20011;51.510;9.942;2023-08-08T11:34:15;6.72;;;3.13;;
33672;SDS011;20011;51.510;9.942;2023-08-08T11:36:43;4.00;;;2.90;;
33672;SDS011;20011;51.510;9.942;2023-08-08T11:39:10;7.38;;;2.95;;
33672;SDS011;20011;51.510;9.942;2023-08-08T11:41:37;3.88;;;2.92;;
33672;SDS011;20011;51.510;9.942;2023-08-08T11:44:07;4.35;;;2.83;;
33672;SDS011;20011;51.510;9.942;2023-08-08T11:46:35;6.85;;;3.05;;
33672;SDS011;20011;51.510;9.942;2023-08-08T11:49:15;3.72;;;2.53;;
33672;SDS011;20011;51.510;9.942;2023-08-08T11:51:44;7.72;;;3.55;;
33672;SDS011;20011;51.510;9.942;2023-08-08T11:54:12;3.95;;;2.97;;
33672;SDS011;20011;51.510;9.942;2023-08-08T11:56:40;8.27;;;3.42;;
33672;SDS011;20011;51.510;9.942;2023-08-08T11:59:07;6.63;;;3.72;;
33672;SDS011;20011;51.510;9.942;2023-08-08T12:01:35;7.22;;;3.42;;
33672;SDS011;20011;51.510;9.942;2023-08-08T12:04:07;7.03;;;3.40;;
33672;SDS011;20011;51.510;9.942;2023-08-08T12:06:36;7.05;;;3.15;;
33672;SDS011;20011;51.510;9.942;2023-08-08T12:09:10;6.15;;;3.78;;
33672;SDS011;20011;51.510;9.942;2023-08-08T12:11:41;6.60;;;3.58;;
33672;SDS011;20011;51.510;9.942;2023-08-08T12:14:11;9.77;;;4.10;;
33672;SDS011;20011;51.510;9.942;2023-08-08T12:16:41;6.88;;;3.25;;
33672;SDS011;20011;51.510;9.942;2023-08-08T12:19:10;6.75;;;3.88;;
33672;SDS011;20011;51.510;9.942;2023-08-08T12:21:37;8.98;;;3.58;;
33672;SDS011;20011;51.510;9.942;2023-08-08T12:24:05;7.45;;;3.65;;
33672;SDS011;20011;51.510;9.942;2023-08-08T12:26:32;9.65;;;3.92;;
33672;SDS011;20011;51.510;9.942;2023-08-08T12:29:00;6.70;;;3.70;;
33672;SDS011;20011;51.510;9.942;2023-08-08T12:31:27;5.57;;;3.42;;
33672;SDS011;20011;51.510;9.942;2023-08-08T12:33:54;4.65;;;2.83;;
33672;SDS011;20011;51.510;9.942;2023-08-08T12:36:21;8.60;;;3.13;;
33672;SDS011;20011;51.510;9.942;2023-08-08T12:38:48;7.72;;;2.78;;
33672;SDS011;20011;51.510;9.942;2023-08-08T12:41:15;7.53;;;3.47;;
33672;SDS011;20011;51.510;9.942;2023-08-08T12:43:43;7.40;;;2.80;;
33672;SDS011;20011;51.510;9.942;2023-08-08T12:46:10;5.07;;;2.28;;
33672;SDS011;20011;51.510;9.942;2023-08-08T12:48:37;9.90;;;2.22;;
33672;SDS011;20011;51.510;9.942;2023-08-08T12:51:05;5.15;;;2.22;;
33672;SDS011;20011;51.510;9.942;2023-08-08T12:53:34;4.82;;;2.50;;
33672;SDS011;20011;51.510;9.942;2023-08-08T12:56:01;3.92;;;2.47;;
33672;SDS011;20011;51.510;9.942;2023-08-08T12:58:28;7.30;;;2.60;;
33672;SDS011;20011;51.510;9.942;2023-08-08T13:00:56;3.60;;;2.33;;
33672;SDS011;20011;51.510;9.942;2023-08-08T13:03:24;4.78;;;2.60;;
33672;SDS011;20011;51.510;9.942;2023-08-08T13:05:51;6.72;;;3.00;;
33672;SDS011;20011;51.510;9.942;2023-08-08T13:08:18;4.53;;;2.35;;
33672;SDS011;20011;51.510;9.942;2023-08-08T13:10:46;4.28;;;2.60;;
33672;SDS011;20011;51.510;9.942;2023-08-08T13:13:13;5.97;;;2.60;;
33672;SDS011;20011;51.510;9.942;2023-08-08T13:15:40;3.30;;;2.30;;
33672;SDS011;20011;51.510;9.942;2023-08-08T13:18:07;7.55;;;2.75;;
33672;SDS011;20011;51.510;9.942;2023-08-08T13:20:34;3.95;;;2.00;;
33672;SDS011;20011;51.510;9.942;2023-08-08T13:23:02;7.32;;;2.30;;
33672;SDS011;20011;51.510;9.942;2023-08-08T13:25:30;5.78;;;2.55;;
33672;SDS011;20011;51.510;9.942;2023-08-08T13:28:01;5.35;;;2.30;;
33672;SDS011;20011;51.510;9.942;2023-08-08T13:30:29;8.52;;;2.10;;
33672;SDS011;20011;51.510;9.942;2023-08-08T13:32:56;4.78;;;2.40;;
33672;SDS011;20011;51.510;9.942;2023-08-08T13:35:27;6.10;;;2.17;;
33672;SDS011;20011;51.510;9.942;2023-08-08T13:37:55;4.25;;;1.98;;
33672;SDS011;20011;51.510;9.942;2023-08-08T13:40:22;3.05;;;2.15;;
33672;SDS011;20011;51.510;9.942;2023-08-08T13:42:49;5.75;;;2.60;;
33672;SDS011;20011;51.510;9.942;2023-08-08T13:45:17;6.68;;;2.60;;
33672;SDS011;20011;51.510;9.942;2023-08-08T13:47:46;6.43;;;2.67;;
33672;SDS011;20011;51.510;9.942;2023-08-08T13:50:13;8.30;;;2.40;;
33672;SDS011;20011;51.510;9.942;2023-08-08T13:52:41;3.88;;;2.05;;
33672;SDS011;20011;51.510;9.942;2023-08-08T13:55:08;4.38;;;2.05;;
33672;SDS011;20011;51.510;9.942;2023-08-08T13:57:35;4.53;;;2.30;;
33672;SDS011;20011;51.510;9.942;2023-08-08T14:00:03;3.90;;;2.00;;
33672;SDS011;20011;51.510;9.942;2023-08-08T14:02:33;4.13;;;2.33;;
33672;SDS011;20011;51.510;9.942;2023-08-08T14:05:00;4.75;;;2.05;;
33672;SDS011;20011;51.510;9.942;2023-08-08T14:07:28;6.88;;;2.00;;
33672;SDS011;20011;51.510;9.942;2023-08-08T14:09:55;6.57;;;2.15;;
33672;SDS011;20011;51.510;9.942;2023-08-08T14:12:23;4.72;;;1.80;;
33672;SDS011;20011;51.510;9.942;2023-08-08T14:14:50;4.72;;;2.28;;
33672;SDS011;20011;51.510;9.942;2023-08-08T14:17:17;4.80;;;1.92;;
33672;SDS011;20011;51.510;9.942;2023-08-08T14:19:46;4.60;;;2.05;;
33672;SDS011;20011;51.510;9.942;2023-08-08T14:22:13;3.35;;;1.65;;
33672;SDS011;20011;51.510;9.942;2023-08-08T14:24:41;2.88;;;1.85;;
33672;SDS011;20011;51.510;9.942;2023-08-08T14:27:10;7.10;;;2.20;;
33672;SDS011;20011;51.510;9.942;2023-08-08T14:29:37;5.50;;;1.80;;
33672;SDS011;20011;51.510;9.942;2023-08-08T14:32:04;3.53;;;1.77;;
33672;SDS011;20011;51.510;9.942;2023-08-08T14:34:33;6.32;;;1.60;;
33672;SDS011;20011;51.510;9.942;2023-08-08T14:37:00;2.20;;;1.60;;
33672;SDS011;20011;51.510;9.942;2023-08-08T14:39:28;2.55;;;1.63;;
33672;SDS011;20011;51.510;9.942;2023-08-08T14:41:55;5.80;;;2.50;;
33672;SDS011;20011;51.510;9.942;2023-08-08T14:44:23;3.65;;;1.92;;
33672;SDS011;20011;51.510;9.942;2023-08-08T14:46:51;4.18;;;2.00;;
33672;SDS011;20011;51.510;9.942;2023-08-08T14:49:18;4.65;;;1.83;;
33672;SDS011;20011;51.510;9.942;2023-08-08T14:51:45;3.15;;;1.77;;
33672;SDS011;20011;51.510;9.942;2023-08-08T14:54:12;7.63;;;1.95;;
33672;SDS011;20011;51.510;9.942;2023-08-08T14:56:39;7.57;;;2.10;;
33672;SDS011;20011;51.510;9.942;2023-08-08T14:59:07;3.00;;;1.83;;
33672;SDS011;20011;51.510;9.942;2023-08-08T15:01:34;5.60;;;2.03;;
33672;SDS011;20011;51.510;9.942;2023-08-08T15:04:01;4.43;;;1.75;;
33672;SDS011;20011;51.510;9.942;2023-08-08T15:06:29;6.55;;;2.10;;
33672;SDS011;20011;51.510;9.942;2023-08-08T15:08:56;5.30;;;1.88;;
33672;SDS011;20011;51.510;9.942;2023-08-08T15:11:23;2.58;;;1.77;;